createdAt,value
2018-05-15T00:00:41.747Z,16.54
2018-05-15T00:03:15.284Z,16.44
2018-05-15T00:05:48.930Z,16.53
2018-05-15T00:08:22.480Z,16.37
2018-05-15T00:10:56.250Z,16.34
2018-05-15T00:13:29.964Z,16.18
2018-05-15T00:16:03.520Z,15.99
2018-05-15T00:18:37.135Z,15.88
2018-05-15T00:21:10.795Z,15.73
2018-05-15T00:23:44.668Z,15.66
2018-05-15T00:26:18.351Z,15.51
2018-05-15T00:28:52.049Z,15.48
2018-05-15T00:31:25.855Z,15.45
2018-05-15T00:33:59.540Z,15.48
2018-05-15T00:36:33.320Z,15.44
2018-05-15T00:39:06.885Z,15.33
2018-05-15T00:41:40.673Z,15.28
2018-05-15T00:44:14.537Z,15.24
2018-05-15T00:46:48.046Z,15.21
2018-05-15T00:49:21.612Z,15.17
2018-05-15T00:51:55.340Z,15.17
2018-05-15T00:54:28.831Z,15.18
2018-05-15T00:57:02.447Z,15.11
2018-05-15T00:59:36.012Z,15.08
2018-05-15T01:02:09.594Z,15.00
2018-05-15T01:04:43.140Z,14.98
2018-05-15T01:07:16.924Z,14.83
2018-05-15T01:09:50.584Z,14.81
2018-05-15T01:12:24.428Z,14.82
2018-05-15T01:14:58.116Z,14.76
2018-05-15T01:17:31.765Z,14.77
2018-05-15T01:20:05.435Z,14.80
2018-05-15T01:22:39.189Z,14.74
2018-05-15T01:25:12.801Z,14.72
2018-05-15T01:27:46.473Z,14.66
2018-05-15T01:30:20.168Z,14.57
2018-05-15T01:32:53.722Z,14.41
2018-05-15T01:35:27.724Z,14.39
2018-05-15T01:38:02.077Z,14.26
2018-05-15T01:40:35.774Z,14.19
2018-05-15T01:43:09.291Z,14.09
2018-05-15T01:45:43.163Z,14.03
2018-05-15T01:48:16.922Z,14.05
2018-05-15T01:50:50.492Z,14.04
2018-05-15T01:53:24.259Z,14.19
2018-05-15T01:55:57.980Z,14.22
2018-05-15T01:58:31.670Z,14.17
2018-05-15T02:01:05.261Z,14.13
2018-05-15T02:03:38.895Z,14.21
2018-05-15T02:06:12.464Z,14.20
2018-05-15T02:08:46.308Z,14.20
2018-05-15T02:11:20.068Z,14.20
2018-05-15T02:13:53.748Z,14.21
2018-05-15T02:16:27.284Z,14.20
2018-05-15T02:19:00.908Z,14.14
2018-05-15T02:21:34.664Z,14.09
2018-05-15T02:24:08.228Z,14.02
2018-05-15T02:26:42.012Z,14.02
2018-05-15T02:29:15.575Z,14.12
2018-05-15T02:31:49.243Z,14.03
2018-05-15T02:34:22.814Z,13.99
2018-05-15T02:36:56.512Z,14.01
2018-05-15T02:39:30.089Z,13.93
2018-05-15T02:42:03.619Z,13.87
2018-05-15T02:44:37.280Z,13.87
2018-05-15T02:47:10.815Z,13.84
2018-05-15T02:49:44.655Z,13.78
2018-05-15T02:52:18.360Z,13.78
2018-05-15T02:54:51.937Z,13.89
2018-05-15T02:57:25.503Z,13.90
2018-05-15T02:59:59.162Z,14.12
2018-05-15T03:02:32.975Z,14.16
2018-05-15T03:05:06.741Z,14.13
2018-05-15T03:07:40.285Z,14.18
2018-05-15T03:10:14.020Z,14.09
2018-05-15T03:12:47.777Z,14.13
2018-05-15T03:15:21.398Z,14.16
2018-05-15T03:17:55.021Z,14.17
2018-05-15T03:20:28.591Z,14.10
2018-05-15T03:23:02.215Z,14.17
2018-05-15T03:25:36.365Z,14.18
2018-05-15T03:28:10.413Z,14.15
2018-05-15T03:30:44.105Z,14.07
2018-05-15T03:33:17.622Z,14.01
2018-05-15T03:35:51.160Z,13.95
2018-05-15T03:38:24.763Z,13.88
2018-05-15T03:40:58.330Z,13.82
2018-05-15T03:43:32.092Z,13.82
2018-05-15T03:46:05.626Z,13.85
2018-05-15T03:48:39.343Z,13.75
2018-05-15T03:51:13.122Z,13.76
2018-05-15T03:53:46.940Z,13.77
2018-05-15T03:56:20.497Z,13.76
2018-05-15T03:58:54.149Z,13.66
2018-05-15T04:01:39.810Z,13.67
2018-05-15T04:04:25.423Z,13.67
2018-05-15T04:07:11.025Z,13.69
2018-05-15T04:09:45.563Z,13.63
2018-05-15T04:12:20.365Z,13.65
2018-05-15T04:14:54.151Z,13.63
2018-05-15T04:17:27.689Z,13.60
2018-05-15T04:20:01.470Z,13.64
2018-05-15T04:22:35.052Z,13.67
2018-05-15T04:25:08.819Z,13.67
2018-05-15T04:27:42.540Z,13.71
2018-05-15T04:30:16.291Z,13.73
2018-05-15T04:32:49.823Z,13.83
2018-05-15T04:35:23.707Z,13.98
2018-05-15T04:37:57.390Z,14.02
2018-05-15T04:40:31.223Z,14.10
2018-05-15T04:43:04.876Z,14.18
2018-05-15T04:45:38.623Z,14.16
2018-05-15T04:48:12.286Z,14.16
2018-05-15T04:50:45.978Z,14.27
2018-05-15T04:53:19.607Z,14.48
2018-05-15T04:55:53.432Z,14.42
2018-05-15T04:58:26.986Z,14.57
2018-05-15T05:01:00.721Z,14.73
2018-05-15T05:03:34.380Z,14.76
2018-05-15T05:06:08.085Z,14.85
2018-05-15T05:08:41.688Z,14.95
2018-05-15T05:11:15.264Z,14.96
2018-05-15T05:13:48.908Z,15.05
2018-05-15T05:16:22.664Z,15.25
2018-05-15T05:18:56.191Z,15.45
2018-05-15T05:21:29.818Z,15.46
2018-05-15T05:24:03.398Z,15.54
2018-05-15T05:26:36.960Z,15.56
2018-05-15T05:29:10.752Z,15.65
2018-05-15T05:31:44.356Z,15.77
2018-05-15T05:34:18.006Z,15.80
2018-05-15T05:36:51.616Z,15.96
2018-05-15T05:39:25.175Z,16.24
2018-05-15T05:41:58.710Z,16.24
2018-05-15T05:44:32.242Z,16.28
2018-05-15T05:47:05.970Z,16.46
2018-05-15T05:49:39.432Z,16.38
2018-05-15T05:52:13.128Z,16.53
2018-05-15T05:54:46.673Z,16.68
2018-05-15T05:57:20.425Z,16.76
2018-05-15T05:59:53.959Z,17.05
2018-05-15T06:02:27.523Z,17.12
2018-05-15T06:05:01.192Z,17.30
2018-05-15T06:07:34.968Z,17.52
2018-05-15T06:10:08.656Z,17.42
2018-05-15T06:12:42.440Z,17.58
2018-05-15T06:15:15.969Z,17.69
2018-05-15T06:17:49.743Z,18.47
2018-05-15T06:20:23.520Z,19.33
2018-05-15T06:22:57.142Z,20.67
2018-05-15T06:25:30.719Z,21.96
2018-05-15T06:28:04.373Z,22.74
2018-05-15T06:30:37.926Z,22.51
2018-05-15T06:33:11.612Z,22.28
2018-05-15T06:35:45.284Z,22.52
2018-05-15T06:38:18.832Z,22.31
2018-05-15T06:40:52.439Z,23.54
2018-05-15T06:43:26.073Z,23.88
2018-05-15T06:45:59.579Z,24.25
2018-05-15T06:48:33.363Z,24.75
2018-05-15T06:51:06.953Z,25.16
2018-05-15T06:53:40.699Z,23.88
2018-05-15T06:56:14.188Z,25.43
2018-05-15T06:58:47.792Z,25.07
2018-05-15T07:01:21.415Z,24.43
2018-05-15T07:03:55.128Z,24.16
2018-05-15T07:06:28.669Z,24.82
2018-05-15T07:09:02.324Z,24.44
2018-05-15T07:11:35.840Z,26.33
2018-05-15T07:14:09.374Z,25.70
2018-05-15T07:16:43.014Z,26.40
2018-05-15T07:19:16.711Z,25.56
2018-05-15T07:21:50.371Z,25.52
2018-05-15T07:24:23.862Z,25.16
2018-05-15T07:26:57.432Z,26.73
2018-05-15T07:29:31.011Z,25.66
2018-05-15T07:32:04.569Z,26.36
2018-05-15T07:34:38.296Z,27.24
2018-05-15T07:40:10.941Z,27.13
2018-05-15T07:42:44.527Z,26.69
2018-05-15T07:45:18.012Z,28.24
2018-05-15T07:47:51.706Z,28.05
2018-05-15T07:50:25.347Z,28.34
2018-05-15T07:52:59.291Z,26.57
2018-05-15T07:55:32.835Z,28.42
2018-05-15T07:58:06.344Z,27.69
2018-05-15T08:00:39.871Z,27.16
2018-05-15T08:03:13.454Z,26.77
2018-05-15T08:05:47.061Z,27.94
2018-05-15T08:08:20.631Z,27.48
2018-05-15T08:10:54.231Z,27.39
2018-05-15T08:13:28.040Z,28.09
2018-05-15T08:16:01.805Z,26.31
2018-05-15T08:18:35.332Z,28.14
2018-05-15T08:21:08.941Z,26.71
2018-05-15T08:23:42.556Z,27.26
2018-05-15T08:26:16.160Z,27.17
2018-05-15T08:28:49.884Z,27.75
2018-05-15T08:31:23.419Z,27.93
2018-05-15T08:33:57.174Z,27.97
2018-05-15T08:36:30.780Z,27.84
2018-05-15T08:39:04.345Z,27.30
2018-05-15T08:41:38.012Z,26.64
2018-05-15T08:44:11.770Z,27.17
2018-05-15T08:46:45.369Z,27.09
2018-05-15T08:49:19.129Z,28.05
2018-05-15T08:51:52.754Z,27.13
2018-05-15T08:54:26.397Z,27.23
2018-05-15T08:57:02.064Z,27.33
2018-05-15T08:59:35.916Z,26.82
2018-05-15T09:02:09.619Z,26.65
2018-05-15T09:04:43.233Z,26.69
2018-05-15T09:07:16.903Z,25.96
2018-05-15T09:09:50.469Z,25.91
2018-05-15T09:12:23.993Z,27.15
2018-05-15T09:14:57.786Z,26.75
2018-05-15T09:17:31.526Z,26.45
2018-05-15T09:20:05.118Z,27.09
2018-05-15T09:22:39.694Z,26.53
2018-05-15T09:25:13.545Z,26.69
2018-05-15T09:27:47.225Z,27.13
2018-05-15T09:30:20.841Z,27.47
2018-05-15T09:32:54.561Z,27.26
2018-05-15T09:35:28.273Z,26.38
2018-05-15T09:38:01.993Z,26.99
2018-05-15T09:40:36.396Z,27.12
2018-05-15T09:43:10.077Z,27.23
2018-05-15T09:45:43.866Z,26.70
2018-05-15T09:48:17.604Z,27.09
2018-05-15T09:50:51.412Z,26.45
2018-05-15T09:53:25.075Z,26.69
2018-05-15T09:55:58.755Z,27.70
2018-05-15T09:58:32.532Z,26.75
2018-05-15T10:01:06.319Z,27.54
2018-05-15T10:03:40.115Z,27.04
2018-05-15T10:06:13.929Z,26.75
2018-05-15T10:08:47.560Z,27.44
2018-05-15T10:11:21.313Z,27.69
2018-05-15T10:13:55.494Z,27.87
2018-05-15T10:16:29.094Z,28.81
2018-05-15T10:19:02.932Z,27.54
2018-05-15T10:21:36.394Z,27.47
2018-05-15T10:24:10.150Z,27.81
2018-05-15T10:26:43.861Z,28.69
2018-05-15T10:29:17.756Z,27.91
2018-05-15T10:31:51.337Z,28.47
2018-05-15T10:34:24.897Z,27.65
2018-05-15T10:36:58.560Z,28.07
2018-05-15T10:39:32.314Z,27.21
2018-05-15T10:42:06.147Z,29.06
2018-05-15T10:44:39.878Z,28.53
2018-05-15T10:47:13.457Z,27.34
2018-05-15T10:49:47.194Z,26.59
2018-05-15T10:52:20.900Z,25.45
2018-05-15T10:54:54.475Z,24.87
2018-05-15T10:57:28.152Z,23.80
2018-05-15T11:00:01.731Z,24.43
2018-05-15T11:02:35.382Z,26.16
2018-05-15T11:05:09.103Z,28.01
2018-05-15T11:07:42.644Z,29.36
2018-05-15T11:10:16.293Z,29.51
2018-05-15T11:12:50.147Z,30.51
2018-05-15T11:15:23.665Z,29.83
2018-05-15T11:17:57.392Z,28.63
2018-05-15T11:20:42.861Z,27.66
2018-05-15T11:23:28.461Z,27.93
2018-05-15T11:26:02.198Z,29.32
2018-05-15T11:28:35.871Z,30.60
2018-05-15T11:31:09.628Z,27.09
2018-05-15T11:33:43.330Z,26.03
2018-05-15T11:36:16.989Z,24.89
2018-05-15T11:38:50.688Z,24.22
2018-05-15T11:41:24.453Z,23.95
2018-05-15T11:43:58.219Z,23.54
2018-05-15T11:46:31.949Z,24.20
2018-05-15T11:49:06.467Z,24.80
2018-05-15T11:51:39.690Z,25.03
2018-05-15T11:54:12.903Z,25.01
2018-05-15T11:56:46.629Z,25.30
2018-05-15T11:59:20.308Z,24.80
2018-05-15T12:01:53.936Z,24.77
2018-05-15T12:04:27.564Z,24.42
2018-05-15T12:07:01.161Z,24.13
2018-05-15T12:09:34.769Z,23.89
2018-05-15T12:12:08.320Z,23.92
2018-05-15T12:14:41.784Z,24.11
2018-05-15T12:17:15.348Z,23.98
2018-05-15T12:19:48.928Z,24.03
2018-05-15T12:22:22.649Z,23.84
2018-05-15T12:24:56.408Z,23.75
2018-05-15T12:27:30.140Z,23.54
2018-05-15T12:30:03.623Z,23.70
2018-05-15T12:32:37.397Z,23.69
2018-05-15T12:35:10.932Z,23.91
2018-05-15T12:37:44.579Z,24.22
2018-05-15T12:40:18.209Z,24.02
2018-05-15T12:42:51.946Z,23.62
2018-05-15T12:45:25.537Z,23.33
2018-05-15T12:47:59.290Z,23.50
2018-05-15T12:50:32.905Z,23.83
2018-05-15T12:53:06.705Z,23.67
2018-05-15T12:55:40.379Z,23.64
2018-05-15T12:58:14.072Z,23.81
2018-05-15T13:00:47.549Z,23.96
2018-05-15T13:03:21.167Z,23.78
2018-05-15T13:05:54.986Z,23.05
2018-05-15T13:08:28.688Z,23.43
2018-05-15T13:11:02.476Z,23.75
2018-05-15T13:13:36.156Z,24.04
2018-05-15T13:16:09.803Z,24.22
2018-05-15T13:18:43.434Z,24.20
2018-05-15T13:21:17.145Z,23.92
2018-05-15T13:23:50.702Z,23.57
2018-05-15T13:26:24.271Z,23.40
2018-05-15T13:28:57.828Z,23.11
2018-05-15T13:31:31.360Z,23.39
2018-05-15T13:34:05.008Z,23.73
2018-05-15T13:36:38.788Z,24.02
2018-05-15T13:39:12.475Z,24.08
2018-05-15T13:41:46.200Z,23.81
2018-05-15T13:44:19.726Z,23.50
2018-05-15T13:46:53.277Z,23.09
2018-05-15T13:49:26.904Z,23.15
2018-05-15T13:52:00.628Z,23.55
2018-05-15T13:54:34.168Z,23.74
2018-05-15T13:57:07.948Z,23.73
2018-05-15T13:59:41.550Z,23.56
2018-05-15T14:02:15.133Z,23.38
2018-05-15T14:04:48.652Z,23.65
2018-05-15T14:07:22.556Z,23.89
2018-05-15T14:09:56.085Z,24.44
2018-05-15T14:12:29.641Z,24.37
2018-05-15T14:15:03.195Z,25.02
2018-05-15T14:17:36.924Z,25.09
2018-05-15T14:20:10.512Z,25.76
2018-05-15T14:22:44.177Z,26.41
2018-05-15T14:25:17.788Z,24.95
2018-05-15T14:27:51.448Z,25.51
2018-05-15T14:30:25.007Z,26.01
2018-05-15T14:32:58.698Z,27.56
2018-05-15T14:35:32.233Z,27.93
2018-05-15T14:38:05.837Z,28.55
2018-05-15T14:40:39.345Z,28.15
2018-05-15T14:43:20.063Z,29.22
2018-05-15T14:45:53.702Z,27.94
2018-05-15T14:48:27.237Z,28.27
2018-05-15T14:54:08.698Z,28.25
2018-05-15T14:56:42.220Z,28.68
2018-05-15T14:59:15.948Z,27.62
2018-05-15T15:01:49.785Z,28.00
2018-05-15T15:04:23.393Z,28.24
2018-05-15T15:06:57.132Z,28.95
2018-05-15T15:09:30.840Z,28.83
2018-05-15T15:12:04.588Z,28.73
2018-05-15T15:14:38.402Z,29.18
2018-05-15T15:17:11.940Z,28.24
2018-05-15T15:19:45.485Z,27.48
2018-05-15T15:22:19.020Z,27.87
2018-05-15T15:24:52.832Z,26.40
2018-05-15T15:27:26.614Z,25.97
2018-05-15T15:30:00.393Z,25.49
2018-05-15T15:32:33.937Z,25.26
2018-05-15T15:35:07.622Z,24.71
2018-05-15T15:37:41.365Z,24.24
2018-05-15T15:40:15.153Z,24.11
2018-05-15T15:42:48.839Z,24.08
2018-05-15T15:45:22.684Z,24.03
2018-05-15T15:47:56.354Z,23.69
2018-05-15T15:50:30.000Z,23.62
2018-05-15T15:53:03.617Z,23.41
2018-05-15T15:55:37.143Z,23.50
2018-05-15T15:58:10.732Z,23.44
2018-05-15T16:00:44.427Z,23.50
2018-05-15T16:03:17.988Z,23.55
2018-05-15T16:05:51.711Z,23.32
2018-05-15T16:08:25.320Z,23.16
2018-05-15T16:10:58.935Z,23.09
2018-05-15T16:13:32.477Z,23.11
2018-05-15T16:16:06.287Z,22.88
2018-05-15T16:18:39.868Z,22.86
2018-05-15T16:21:13.700Z,22.87
2018-05-15T16:23:47.237Z,22.62
2018-05-15T16:26:20.803Z,22.64
2018-05-15T16:28:54.468Z,22.63
2018-05-15T16:31:28.013Z,22.72
2018-05-15T16:34:01.592Z,22.80
2018-05-15T16:36:35.084Z,22.55
2018-05-15T16:39:08.924Z,22.47
2018-05-15T16:41:42.703Z,22.44
2018-05-15T16:44:16.422Z,22.37
2018-05-15T16:46:50.019Z,22.53
2018-05-15T16:49:23.836Z,22.22
2018-05-15T16:51:57.473Z,22.13
2018-05-15T16:54:31.213Z,22.22
2018-05-15T16:57:04.816Z,22.12
2018-05-15T16:59:38.546Z,22.09
2018-05-15T17:02:12.189Z,22.08
2018-05-15T17:04:45.972Z,22.10
2018-05-15T17:07:19.550Z,22.05
2018-05-15T17:09:53.156Z,22.04
2018-05-15T17:12:26.762Z,21.95
2018-05-15T17:15:00.504Z,21.87
2018-05-15T17:17:34.096Z,21.91
2018-05-15T17:20:07.832Z,21.92
2018-05-15T17:22:41.399Z,21.88
2018-05-15T17:25:15.157Z,21.77
2018-05-15T17:27:48.770Z,21.71
2018-05-15T17:30:22.350Z,21.74
2018-05-15T17:32:55.950Z,21.76
2018-05-15T17:35:29.520Z,21.74
2018-05-15T17:38:03.155Z,21.80
2018-05-15T17:40:36.739Z,21.84
2018-05-15T17:43:10.507Z,21.74
2018-05-15T17:45:44.104Z,21.66
2018-05-15T17:48:17.848Z,21.50
2018-05-15T17:50:51.500Z,21.46
2018-05-15T17:53:25.067Z,21.46
2018-05-15T17:55:58.755Z,21.40
2018-05-15T17:58:32.306Z,21.43
2018-05-15T18:01:06.103Z,21.38
2018-05-15T18:03:39.658Z,21.37
2018-05-15T18:06:13.381Z,21.37
2018-05-15T18:08:46.950Z,21.18
2018-05-15T18:11:20.478Z,21.07
2018-05-15T18:13:54.045Z,21.14
2018-05-15T18:16:27.836Z,21.15
2018-05-15T18:19:01.510Z,21.07
2018-05-15T18:21:35.080Z,21.08
2018-05-15T18:24:08.934Z,21.06
2018-05-15T18:26:42.409Z,20.86
2018-05-15T18:29:15.881Z,20.86
2018-05-15T18:31:49.443Z,20.76
2018-05-15T18:34:23.013Z,20.81
2018-05-15T18:36:56.592Z,20.80
2018-05-15T18:39:30.105Z,20.80
2018-05-15T18:42:03.851Z,20.71
2018-05-15T18:44:37.503Z,20.60
2018-05-15T18:47:11.156Z,20.59
2018-05-15T18:49:44.949Z,20.49
2018-05-15T18:52:18.635Z,20.35
2018-05-15T18:54:52.234Z,20.26
2018-05-15T18:57:25.850Z,20.25
2018-05-15T18:59:59.676Z,20.16
2018-05-15T19:02:33.391Z,20.06
2018-05-15T19:05:07.027Z,19.94
2018-05-15T19:07:40.742Z,19.89
2018-05-15T19:10:14.272Z,19.81
2018-05-15T19:12:47.988Z,19.71
2018-05-15T19:15:21.649Z,19.59
2018-05-15T19:17:55.396Z,19.39
2018-05-15T19:20:29.213Z,19.27
2018-05-15T19:23:02.820Z,19.16
2018-05-15T19:25:36.376Z,18.92
2018-05-15T19:28:09.907Z,18.93
2018-05-15T19:30:43.636Z,18.74
2018-05-15T19:33:17.236Z,18.46
2018-05-15T19:35:50.964Z,18.28
2018-05-15T19:38:24.526Z,18.17
2018-05-15T19:40:58.305Z,18.07
2018-05-15T19:43:32.107Z,17.92
2018-05-15T19:46:05.900Z,17.79
2018-05-15T19:48:39.428Z,17.92
2018-05-15T19:51:12.971Z,17.76
2018-05-15T19:53:46.715Z,17.59
2018-05-15T19:56:20.312Z,17.48
2018-05-15T19:58:53.920Z,17.42
2018-05-15T20:01:27.511Z,17.28
2018-05-15T20:04:01.115Z,17.24
2018-05-15T20:06:34.712Z,17.16
2018-05-15T20:09:08.512Z,17.08
2018-05-15T20:11:42.168Z,17.01
2018-05-15T20:14:15.745Z,16.93
2018-05-15T20:16:49.305Z,16.87
2018-05-15T20:19:22.940Z,16.83
2018-05-15T20:21:56.704Z,16.80
2018-05-15T20:24:30.304Z,16.74
2018-05-15T20:27:03.884Z,16.74
2018-05-15T20:29:37.425Z,16.73
2018-05-15T20:32:11.202Z,16.80
2018-05-15T20:34:44.961Z,16.84
2018-05-15T20:37:18.689Z,16.92
2018-05-15T20:39:52.329Z,16.95
2018-05-15T20:42:25.984Z,17.03
2018-05-15T20:44:59.594Z,17.08
2018-05-15T20:47:33.168Z,17.08
2018-05-15T20:50:06.719Z,17.14
2018-05-15T20:52:40.418Z,17.16
2018-05-15T20:55:14.105Z,17.13
2018-05-15T20:57:47.950Z,17.05
2018-05-15T21:00:21.588Z,17.08
2018-05-15T21:02:55.289Z,17.10
2018-05-15T21:05:28.887Z,17.01
2018-05-15T21:08:02.481Z,16.96
2018-05-15T21:10:36.211Z,16.97
2018-05-15T21:13:09.843Z,17.00
2018-05-15T21:15:43.644Z,17.00
2018-05-15T21:18:17.313Z,17.09
2018-05-15T21:20:50.922Z,17.15
2018-05-15T21:23:24.593Z,17.14
2018-05-15T21:25:58.294Z,17.20
2018-05-15T21:28:32.017Z,17.26
2018-05-15T21:31:05.683Z,17.21
2018-05-15T21:33:39.682Z,17.21
2018-05-15T21:36:13.493Z,17.31
2018-05-15T21:38:47.250Z,17.31
2018-05-15T21:41:20.967Z,17.27
2018-05-15T21:43:54.769Z,17.18
2018-05-15T21:46:28.537Z,17.09
2018-05-15T21:49:02.517Z,17.06
2018-05-15T21:51:36.157Z,17.00
2018-05-15T21:54:09.865Z,16.96
2018-05-15T21:56:43.640Z,16.93
2018-05-15T21:59:17.420Z,16.89
2018-05-15T22:01:51.030Z,16.85
2018-05-15T22:04:24.781Z,16.81
2018-05-15T22:06:58.519Z,16.86
2018-05-15T22:09:32.220Z,16.90
2018-05-15T22:12:17.900Z,16.95
2018-05-15T22:15:03.456Z,16.99
2018-05-15T22:17:49.101Z,16.97
2018-05-15T22:20:34.675Z,16.89
2018-05-15T22:23:07.733Z,16.86
2018-05-15T22:25:41.473Z,16.83
2018-05-15T22:28:15.155Z,16.74
2018-05-15T22:30:48.896Z,16.70
2018-05-15T22:33:22.617Z,16.66
2018-05-15T22:35:56.301Z,16.61
2018-05-15T22:38:29.982Z,16.55
2018-05-15T22:41:03.793Z,16.56
2018-05-15T22:43:37.684Z,16.58
2018-05-15T22:46:11.269Z,16.61
2018-05-15T22:48:44.953Z,16.58
2018-05-15T22:51:18.686Z,16.59
2018-05-15T22:53:52.403Z,16.59
2018-05-15T22:56:26.146Z,16.58
2018-05-15T22:58:59.897Z,16.63
2018-05-15T23:01:33.568Z,16.56
2018-05-15T23:04:07.152Z,16.58
2018-05-15T23:06:40.751Z,16.58
2018-05-15T23:09:14.472Z,16.59
2018-05-15T23:11:48.269Z,16.61
2018-05-15T23:14:21.960Z,16.67
2018-05-15T23:16:55.626Z,16.75
2018-05-15T23:19:29.400Z,16.83
2018-05-15T23:22:03.030Z,16.84
2018-05-15T23:24:36.769Z,16.85
2018-05-15T23:27:10.441Z,16.86
2018-05-15T23:29:44.145Z,16.91
2018-05-15T23:32:17.867Z,16.94
2018-05-15T23:34:51.668Z,16.95
2018-05-15T23:37:25.374Z,16.90
2018-05-15T23:39:59.056Z,16.88
2018-05-15T23:42:32.621Z,16.85
2018-05-15T23:45:06.445Z,16.86
2018-05-15T23:47:40.130Z,16.90
2018-05-15T23:50:13.817Z,16.91
2018-05-15T23:52:47.477Z,16.90
2018-05-15T23:55:21.227Z,16.96
2018-05-15T23:57:55.039Z,16.95
